createdAt,value
2023-05-11T00:00:03.330Z,15.77
2023-05-11T00:02:35.960Z,17.77
2023-05-11T00:05:03.733Z,16.13
2023-05-11T00:07:31.118Z,17.73
2023-05-11T00:10:03.094Z,13.07
2023-05-11T00:12:30.237Z,13.03
2023-05-11T00:14:57.384Z,12.77
2023-05-11T00:17:26.662Z,11.20
2023-05-11T00:19:53.783Z,11.20
2023-05-11T00:22:21.280Z,9.77
2023-05-11T00:24:50.631Z,11.90
2023-05-11T00:27:17.806Z,11.40
2023-05-11T00:29:47.422Z,10.77
2023-05-11T00:32:14.545Z,10.23
2023-05-11T00:34:41.656Z,12.47
2023-05-11T00:37:11.006Z,12.77
2023-05-11T00:39:40.595Z,10.67
2023-05-11T00:42:11.457Z,12.02
2023-05-11T00:44:38.582Z,13.40
2023-05-11T00:47:10.877Z,11.70
2023-05-11T00:49:39.003Z,10.00
2023-05-11T00:52:06.469Z,11.73
2023-05-11T00:54:33.664Z,10.47
2023-05-11T00:57:04.096Z,8.83
2023-05-11T00:59:38.318Z,9.43
2023-05-11T01:02:06.139Z,10.03
2023-05-11T01:04:35.988Z,12.20
2023-05-11T01:07:12.550Z,9.23
2023-05-11T01:09:48.446Z,9.17
2023-05-11T01:12:53.987Z,9.53
2023-05-11T01:15:52.729Z,7.80
2023-05-11T01:18:29.139Z,9.37
2023-05-11T01:21:01.315Z,8.47
2023-05-11T01:23:40.559Z,9.80
2023-05-11T01:26:11.510Z,12.17
2023-05-11T01:29:09.796Z,8.90
2023-05-11T01:31:41.930Z,9.27
2023-05-11T01:34:19.243Z,9.97
2023-05-11T01:37:03.368Z,8.00
2023-05-11T01:39:39.721Z,8.30
2023-05-11T01:42:15.446Z,8.67
2023-05-11T01:44:46.042Z,8.02
2023-05-11T01:47:17.154Z,8.35
2023-05-11T01:49:48.590Z,9.65
2023-05-11T01:52:18.104Z,8.80
2023-05-11T01:54:52.497Z,8.67
2023-05-11T01:57:22.714Z,9.20
2023-05-11T01:59:53.473Z,8.83
2023-05-11T02:02:24.916Z,12.30
2023-05-11T02:04:52.996Z,8.15
2023-05-11T02:07:22.279Z,9.20
2023-05-11T02:09:53.729Z,9.43
2023-05-11T02:12:22.698Z,7.90
2023-05-11T02:14:51.261Z,6.93
2023-05-11T02:17:24.349Z,10.20
2023-05-11T02:19:58.205Z,8.33
2023-05-11T02:22:29.608Z,7.97
2023-05-11T02:24:59.493Z,7.53
2023-05-11T02:27:28.877Z,8.93
2023-05-11T02:29:56.300Z,10.40
2023-05-11T02:32:28.635Z,10.75
2023-05-11T02:35:07.395Z,12.57
2023-05-11T02:37:38.971Z,10.63
2023-05-11T02:40:18.105Z,8.57
2023-05-11T02:42:57.046Z,9.83
2023-05-11T02:45:28.143Z,10.10
2023-05-11T02:47:56.768Z,11.77
2023-05-11T02:50:30.235Z,10.10
2023-05-11T02:53:07.740Z,9.27
2023-05-11T02:55:37.187Z,8.87
2023-05-11T02:58:06.734Z,9.18
2023-05-11T03:00:36.169Z,8.70
2023-05-11T03:03:06.805Z,7.90
2023-05-11T03:05:36.544Z,9.50
2023-05-11T03:08:06.420Z,10.10
2023-05-11T03:10:34.335Z,10.93
2023-05-11T03:13:05.517Z,10.47
2023-05-11T03:15:36.983Z,11.83
2023-05-11T03:18:10.876Z,8.93
2023-05-11T03:20:41.753Z,10.90
2023-05-11T03:23:12.065Z,12.27
2023-05-11T03:25:43.540Z,12.90
2023-05-11T03:28:14.751Z,10.23
2023-05-11T03:30:46.092Z,10.77
2023-05-11T03:33:13.243Z,15.03
2023-05-11T03:35:44.272Z,13.53
2023-05-11T03:38:15.914Z,10.03
2023-05-11T03:40:44.510Z,12.40
2023-05-11T03:43:14.943Z,8.85
2023-05-11T03:45:45.594Z,10.73
2023-05-11T03:48:16.489Z,9.65
2023-05-11T03:50:49.583Z,13.02
2023-05-11T03:53:19.037Z,11.07
2023-05-11T03:55:46.328Z,9.70
2023-05-11T03:58:16.414Z,15.10
2023-05-11T04:00:43.701Z,15.93
2023-05-11T04:03:11.664Z,16.37
2023-05-11T04:05:38.882Z,15.97
2023-05-11T04:08:09.771Z,16.27
2023-05-11T04:10:38.308Z,15.98
2023-05-11T04:13:07.795Z,17.33
2023-05-11T04:15:35.906Z,22.67
2023-05-11T04:18:05.296Z,20.80
2023-05-11T04:20:32.445Z,21.07
2023-05-11T04:22:59.689Z,24.00
2023-05-11T04:25:27.553Z,25.43
2023-05-11T04:27:56.949Z,18.20
2023-05-11T04:30:24.255Z,19.02
2023-05-11T04:32:53.734Z,22.10
2023-05-11T04:35:24.809Z,23.83
2023-05-11T04:37:51.939Z,22.70
2023-05-11T04:40:26.745Z,22.57
2023-05-11T04:42:54.374Z,22.43
2023-05-11T04:45:21.571Z,23.93
2023-05-11T04:47:55.939Z,18.73
2023-05-11T04:50:23.156Z,22.05
2023-05-11T04:52:52.449Z,21.85
2023-05-11T04:55:19.681Z,21.80
2023-05-11T04:57:46.811Z,21.20
2023-05-11T05:00:14.302Z,19.43
2023-05-11T05:02:41.449Z,23.33
2023-05-11T05:05:09.134Z,18.43
2023-05-11T05:07:38.850Z,17.42
2023-05-11T05:10:08.980Z,22.03
2023-05-11T05:12:38.671Z,19.63
2023-05-11T05:15:06.491Z,19.33
2023-05-11T05:17:33.738Z,17.63
2023-05-11T05:20:05.978Z,17.27
2023-05-11T05:22:36.387Z,17.83
2023-05-11T05:25:03.857Z,21.60
2023-05-11T05:27:34.888Z,17.60
2023-05-11T05:30:02.380Z,15.52
2023-05-11T05:32:31.813Z,16.25
2023-05-11T05:34:59.012Z,17.50
2023-05-11T05:37:26.164Z,19.83
2023-05-11T05:39:55.428Z,14.47
2023-05-11T05:42:22.632Z,17.90
2023-05-11T05:44:52.333Z,22.70
2023-05-11T05:47:21.948Z,15.20
2023-05-11T05:49:49.120Z,16.07
2023-05-11T05:52:18.483Z,13.37
2023-05-11T05:54:45.674Z,12.90
2023-05-11T05:57:14.970Z,14.27
2023-05-11T05:59:42.857Z,12.50
2023-05-11T06:02:10.149Z,15.27
2023-05-11T06:04:39.571Z,13.48
2023-05-11T06:07:06.751Z,16.17
2023-05-11T06:09:33.861Z,15.37
2023-05-11T06:12:01.060Z,12.40
2023-05-11T06:14:28.182Z,15.03
2023-05-11T06:16:57.465Z,12.60
2023-05-11T06:19:26.669Z,18.83
2023-05-11T06:21:58.823Z,10.63
2023-05-11T06:24:30.777Z,14.32
2023-05-11T06:27:00.635Z,13.60
2023-05-11T06:29:30.854Z,16.20
2023-05-11T06:31:58.797Z,12.67
2023-05-11T06:34:25.964Z,14.03
2023-05-11T06:36:53.067Z,12.73
2023-05-11T06:39:20.240Z,15.13
2023-05-11T06:41:53.879Z,16.10
2023-05-11T06:44:29.209Z,11.97
2023-05-11T06:46:56.555Z,15.75
2023-05-11T06:49:25.938Z,13.73
2023-05-11T06:51:53.119Z,11.93
2023-05-11T06:54:25.016Z,15.40
2023-05-11T06:56:54.779Z,11.53
2023-05-11T06:59:21.968Z,11.73
2023-05-11T07:01:49.106Z,10.37
2023-05-11T07:04:16.438Z,10.33
2023-05-11T07:06:45.765Z,13.30
2023-05-11T07:09:15.512Z,12.50
2023-05-11T07:11:44.767Z,13.03
2023-05-11T07:14:12.202Z,11.50
2023-05-11T07:16:41.618Z,14.57
2023-05-11T07:19:11.165Z,10.57
2023-05-11T07:21:40.935Z,12.07
2023-05-11T07:24:08.087Z,11.93
2023-05-11T07:26:35.733Z,12.67
2023-05-11T07:29:02.891Z,10.50
2023-05-11T07:31:30.309Z,12.00
2023-05-11T07:34:02.165Z,9.73
2023-05-11T07:36:31.638Z,10.85
2023-05-11T07:38:59.596Z,11.68
2023-05-11T07:41:27.322Z,10.97
2023-05-11T07:43:55.209Z,11.30
2023-05-11T07:46:24.916Z,15.77
2023-05-11T07:49:03.516Z,16.70
2023-05-11T07:51:44.227Z,10.77
2023-05-11T07:54:11.356Z,10.67
2023-05-11T07:56:43.353Z,9.70
2023-05-11T07:59:12.776Z,9.23
2023-05-11T08:01:40.134Z,9.60
2023-05-11T08:04:12.032Z,12.60
2023-05-11T08:06:44.845Z,9.00
2023-05-11T08:09:15.678Z,8.40
2023-05-11T08:11:45.056Z,9.10
2023-05-11T08:14:17.324Z,6.70
2023-05-11T08:16:44.792Z,9.35
2023-05-11T08:19:14.208Z,11.27
2023-05-11T08:21:41.913Z,8.23
2023-05-11T08:24:11.541Z,8.40
2023-05-11T08:26:41.289Z,7.82
2023-05-11T08:29:12.461Z,5.97
2023-05-11T08:31:40.424Z,8.63
2023-05-11T08:34:18.499Z,8.15
2023-05-11T08:36:47.239Z,5.25
2023-05-11T08:39:21.373Z,8.25
2023-05-11T08:42:02.714Z,8.43
2023-05-11T08:44:39.074Z,9.82
2023-05-11T08:49:43.687Z,6.13
2023-05-11T08:52:14.034Z,10.27
2023-05-11T08:54:45.607Z,9.93
2023-05-11T08:57:17.553Z,6.47
2023-05-11T08:59:48.190Z,8.70
2023-05-11T09:02:18.173Z,9.17
2023-05-11T09:04:53.106Z,10.55
2023-05-11T09:07:21.992Z,13.87
2023-05-11T09:09:51.642Z,9.57
2023-05-11T09:12:20.262Z,10.90
2023-05-11T09:14:50.070Z,9.53
2023-05-11T09:17:17.257Z,10.05
2023-05-11T09:20:01.977Z,7.93
2023-05-11T09:22:31.367Z,9.73
2023-05-11T09:25:05.364Z,8.75
2023-05-11T09:27:32.872Z,8.38
2023-05-11T09:30:22.005Z,8.27
2023-05-11T09:32:50.848Z,9.13
2023-05-11T09:35:30.273Z,9.85
2023-05-11T09:38:06.777Z,7.22
2023-05-11T09:40:39.009Z,8.43
2023-05-11T09:43:20.155Z,5.75
2023-05-11T09:45:53.114Z,7.88
2023-05-11T09:48:22.830Z,7.88
2023-05-11T09:50:52.995Z,8.93
2023-05-11T09:53:20.455Z,9.60
2023-05-11T09:55:57.733Z,8.65
2023-05-11T09:58:35.733Z,7.40
2023-05-11T10:01:07.557Z,9.95
2023-05-11T10:04:02.653Z,7.97
2023-05-11T10:06:53.882Z,11.27
2023-05-11T10:09:25.621Z,8.25
2023-05-11T10:11:56.787Z,4.35
2023-05-11T10:14:28.538Z,7.40
2023-05-11T10:17:00.797Z,5.80
2023-05-11T10:19:31.673Z,8.07
2023-05-11T10:22:00.542Z,5.32
2023-05-11T10:24:28.077Z,4.57
2023-05-11T10:26:57.517Z,6.35
2023-05-11T10:29:25.853Z,5.95
2023-05-11T10:31:57.773Z,7.05
2023-05-11T10:34:29.358Z,9.05
2023-05-11T10:37:00.032Z,6.35
2023-05-11T10:39:31.624Z,8.32
2023-05-11T10:42:08.154Z,7.15
2023-05-11T10:44:53.751Z,9.13
2023-05-11T10:48:11.774Z,7.93
2023-05-11T10:50:43.193Z,10.35
2023-05-11T10:53:34.983Z,6.00
2023-05-11T10:56:36.530Z,8.48
2023-05-11T10:59:39.140Z,5.95
2023-05-11T11:02:09.113Z,8.35
2023-05-11T11:04:46.747Z,7.65
2023-05-11T11:07:18.768Z,11.75
2023-05-11T11:09:52.517Z,9.50
2023-05-11T11:12:21.158Z,6.55
2023-05-11T11:15:04.318Z,6.47
2023-05-11T11:17:36.805Z,8.38
2023-05-11T11:20:10.154Z,7.85
2023-05-11T11:22:41.697Z,10.10
2023-05-11T11:25:10.891Z,7.88
2023-05-11T11:27:41.092Z,5.68
2023-05-11T11:30:24.591Z,6.45
2023-05-11T11:33:10.711Z,7.00
2023-05-11T11:35:44.016Z,7.32
2023-05-11T11:38:14.534Z,8.13
2023-05-11T11:40:54.966Z,6.78
2023-05-11T11:43:26.707Z,8.15
2023-05-11T11:45:59.740Z,7.75
2023-05-11T11:48:40.645Z,8.10
2023-05-11T11:51:14.581Z,7.57
2023-05-11T11:53:41.974Z,6.95
2023-05-11T11:56:14.335Z,8.77
2023-05-11T11:58:41.671Z,11.07
2023-05-11T12:01:23.133Z,8.50
2023-05-11T12:04:19.416Z,8.00
2023-05-11T12:06:57.855Z,5.40
2023-05-11T12:09:28.371Z,8.23
2023-05-11T12:11:57.162Z,7.38
2023-05-11T12:14:25.195Z,7.35
2023-05-11T12:17:28.301Z,8.43
2023-05-11T12:20:11.977Z,7.80
2023-05-11T12:22:42.093Z,7.93
2023-05-11T12:25:11.450Z,6.05
2023-05-11T12:27:54.822Z,6.72
2023-05-11T12:30:24.705Z,9.40
2023-05-11T12:32:57.868Z,7.60
2023-05-11T12:35:32.985Z,7.15
2023-05-11T12:38:03.535Z,8.98
2023-05-11T12:40:31.439Z,5.60
2023-05-11T12:43:01.694Z,8.48
2023-05-11T12:45:31.697Z,6.72
2023-05-11T12:48:01.135Z,10.18
2023-05-11T12:50:32.925Z,9.95
2023-05-11T12:53:16.752Z,7.20
2023-05-11T12:55:44.346Z,4.97
2023-05-11T12:58:19.376Z,8.00
2023-05-11T13:00:58.787Z,6.47
2023-05-11T13:03:28.425Z,6.53
2023-05-11T13:06:09.884Z,12.45
2023-05-11T13:08:48.106Z,6.07
2023-05-11T13:11:18.390Z,5.22
2023-05-11T13:13:48.150Z,7.65
2023-05-11T13:16:27.583Z,7.07
2023-05-11T13:19:08.392Z,6.70
2023-05-11T13:21:35.881Z,7.47
2023-05-11T13:24:05.730Z,5.95
2023-05-11T13:26:33.369Z,5.85
2023-05-11T13:29:09.507Z,9.15
2023-05-11T13:31:52.052Z,6.00
2023-05-11T13:34:21.988Z,7.90
2023-05-11T13:36:49.588Z,7.78
2023-05-11T13:39:21.879Z,5.95
2023-05-11T13:41:49.118Z,6.78
2023-05-11T13:44:16.351Z,6.10
2023-05-11T13:46:43.716Z,5.53
2023-05-11T13:49:11.350Z,7.47
2023-05-11T13:51:42.838Z,8.80
2023-05-11T13:54:10.110Z,8.45
2023-05-11T13:56:44.325Z,6.78
2023-05-11T13:59:11.615Z,7.80
2023-05-11T14:01:38.945Z,8.32
2023-05-11T14:04:08.576Z,6.65
2023-05-11T14:06:37.905Z,8.23
2023-05-11T14:09:07.258Z,8.48
2023-05-11T14:11:34.547Z,10.10
2023-05-11T14:14:01.715Z,5.78
2023-05-11T14:16:31.381Z,8.05
2023-05-11T14:19:00.835Z,9.68
2023-05-11T14:21:28.118Z,8.10
2023-05-11T14:24:11.338Z,8.77
2023-05-11T14:26:41.753Z,7.15
2023-05-11T14:29:08.922Z,7.70
2023-05-11T14:31:37.019Z,8.57
2023-05-11T14:34:06.841Z,6.65
2023-05-11T14:36:34.291Z,6.97
2023-05-11T14:39:06.815Z,6.22
2023-05-11T14:41:36.941Z,10.50
2023-05-11T14:44:04.299Z,7.93
2023-05-11T14:46:33.898Z,7.55
2023-05-11T14:49:03.562Z,8.07
2023-05-11T14:51:33.256Z,10.63
2023-05-11T14:54:02.543Z,8.32
2023-05-11T14:56:29.885Z,9.80
2023-05-11T14:58:59.253Z,9.93
2023-05-11T15:01:26.594Z,9.20
2023-05-11T15:03:58.717Z,9.98
2023-05-11T15:06:30.418Z,7.40
2023-05-11T15:09:01.718Z,9.80
2023-05-11T15:11:28.923Z,7.85
2023-05-11T15:13:56.056Z,10.77
2023-05-11T15:16:23.186Z,14.43
2023-05-11T15:18:55.202Z,16.92
2023-05-11T15:21:25.298Z,15.52
2023-05-11T15:23:52.440Z,20.42
2023-05-11T15:26:19.722Z,21.25
2023-05-11T15:28:51.734Z,18.52
2023-05-11T15:31:18.979Z,20.48
2023-05-11T15:33:46.226Z,16.85
2023-05-11T15:36:18.596Z,19.58
2023-05-11T15:38:46.179Z,16.67
2023-05-11T15:41:15.523Z,15.38
2023-05-11T15:43:44.855Z,15.52
2023-05-11T15:46:16.280Z,15.38
2023-05-11T15:48:45.614Z,16.27
2023-05-11T15:51:19.480Z,15.90
2023-05-11T15:53:46.654Z,15.25
2023-05-11T15:56:16.329Z,15.02
2023-05-11T15:58:46.091Z,15.25
2023-05-11T16:01:13.370Z,14.23
2023-05-11T16:03:42.950Z,15.48
2023-05-11T16:06:10.407Z,12.95
2023-05-11T16:08:45.032Z,12.60
2023-05-11T16:11:18.791Z,15.93
2023-05-11T16:13:46.704Z,13.45
2023-05-11T16:16:14.281Z,13.88
2023-05-11T16:18:46.423Z,14.52
2023-05-11T16:21:16.201Z,12.20
2023-05-11T16:23:43.333Z,12.48
2023-05-11T16:26:10.673Z,12.18
2023-05-11T16:28:37.907Z,13.82
2023-05-11T16:31:07.468Z,12.90
2023-05-11T16:33:37.797Z,12.15
2023-05-11T16:36:09.817Z,12.80
2023-05-11T16:38:39.510Z,11.25
2023-05-11T16:41:06.657Z,11.40
2023-05-11T16:43:33.847Z,11.38
2023-05-11T16:46:01.465Z,10.20
2023-05-11T16:48:31.091Z,10.65
2023-05-11T16:51:05.120Z,10.18
2023-05-11T16:53:34.537Z,11.18
2023-05-11T16:56:04.824Z,9.65
2023-05-11T16:58:34.446Z,10.27
2023-05-11T17:01:04.873Z,8.45
2023-05-11T17:03:35.119Z,9.15
2023-05-11T17:06:03.002Z,9.27
2023-05-11T17:08:30.267Z,11.95
2023-05-11T17:10:59.506Z,7.17
2023-05-11T17:13:29.754Z,9.05
2023-05-11T17:15:57.359Z,8.48
2023-05-11T17:18:27.125Z,7.37
2023-05-11T17:20:56.094Z,7.15
2023-05-11T17:23:27.179Z,11.77
2023-05-11T17:25:57.031Z,9.73
2023-05-11T17:28:24.265Z,9.10
2023-05-11T17:30:52.703Z,7.07
2023-05-11T17:33:23.485Z,8.73
2023-05-11T17:35:51.396Z,8.40
2023-05-11T17:38:20.755Z,11.43
2023-05-11T17:40:52.304Z,8.57
2023-05-11T17:43:21.614Z,7.85
2023-05-11T17:45:51.042Z,6.90
2023-05-11T17:48:20.355Z,9.40
2023-05-11T17:50:49.915Z,10.50
2023-05-11T17:53:22.052Z,9.57
2023-05-11T17:55:50.255Z,9.57
2023-05-11T17:58:19.910Z,9.38
2023-05-11T18:00:49.185Z,10.25
2023-05-11T18:03:18.959Z,11.70
2023-05-11T18:05:52.473Z,8.90
2023-05-11T18:08:22.107Z,9.02
2023-05-11T18:10:49.213Z,13.32
2023-05-11T18:13:21.431Z,10.20
2023-05-11T18:15:49.116Z,10.10
2023-05-11T18:18:16.598Z,9.77
2023-05-11T18:20:46.281Z,10.43
2023-05-11T18:23:16.548Z,13.10
2023-05-11T18:25:43.789Z,13.43
2023-05-11T18:28:10.886Z,12.45
2023-05-11T18:30:41.203Z,12.47
2023-05-11T18:33:15.842Z,9.63
2023-05-11T18:35:43.218Z,10.77
2023-05-11T18:38:12.978Z,10.57
2023-05-11T18:40:40.409Z,9.27
2023-05-11T18:43:07.943Z,11.05
2023-05-11T18:45:35.290Z,9.23
2023-05-11T18:48:05.588Z,11.75
2023-05-11T18:50:32.890Z,8.13
2023-05-11T18:53:02.594Z,8.20
2023-05-11T18:55:41.110Z,8.15
2023-05-11T18:58:20.371Z,11.47
2023-05-11T19:00:48.740Z,8.73
2023-05-11T19:03:19.000Z,8.90
2023-05-11T19:05:46.622Z,8.80
2023-05-11T19:08:13.812Z,7.35
2023-05-11T19:10:47.868Z,8.03
2023-05-11T19:13:15.172Z,10.10
2023-05-11T19:15:42.399Z,8.57
2023-05-11T19:18:09.622Z,8.20
2023-05-11T19:20:39.522Z,11.90
2023-05-11T19:23:11.517Z,10.63
2023-05-11T19:25:43.640Z,9.37
2023-05-11T19:28:10.856Z,9.63
2023-05-11T19:30:40.373Z,10.63
2023-05-11T19:33:07.534Z,9.87
2023-05-11T19:35:34.741Z,11.98
2023-05-11T19:38:01.907Z,11.63
2023-05-11T19:43:06.712Z,12.35
2023-05-11T19:45:37.328Z,11.05
2023-05-11T19:48:07.109Z,13.15
2023-05-11T19:50:34.241Z,15.60
2023-05-11T19:53:03.666Z,11.07
2023-05-11T19:55:31.143Z,11.77
2023-05-11T19:57:58.300Z,10.85
2023-05-11T20:00:25.496Z,9.38
2023-05-11T20:02:57.118Z,12.60
2023-05-11T20:05:26.867Z,11.75
2023-05-11T20:07:58.713Z,13.18
2023-05-11T20:10:30.556Z,11.73
2023-05-11T20:12:59.509Z,10.63
2023-05-11T20:15:33.973Z,13.05
2023-05-11T20:18:04.512Z,11.13
2023-05-11T20:20:34.392Z,11.93
2023-05-11T20:23:02.441Z,13.03
2023-05-11T20:25:31.760Z,11.20
2023-05-11T20:28:01.201Z,10.90
2023-05-11T20:30:28.384Z,10.77
2023-05-11T20:35:25.550Z,12.25
2023-05-11T20:37:57.650Z,10.07
2023-05-11T20:40:27.110Z,12.03
2023-05-11T20:42:54.229Z,15.70
2023-05-11T20:45:23.747Z,14.13
2023-05-11T20:47:51.004Z,12.20
2023-05-11T20:50:23.425Z,10.97
2023-05-11T20:52:52.915Z,11.85
2023-05-11T20:55:22.661Z,10.93
2023-05-11T20:57:49.806Z,12.63
2023-05-11T21:00:17.712Z,13.52
2023-05-11T21:02:47.514Z,11.93
2023-05-11T21:05:14.890Z,12.23
2023-05-11T21:07:44.269Z,12.80
2023-05-11T21:10:16.431Z,13.27
2023-05-11T21:12:48.639Z,12.07
2023-05-11T21:15:18.359Z,13.43
2023-05-11T21:17:45.508Z,14.03
2023-05-11T21:20:13.461Z,13.65
2023-05-11T21:22:43.003Z,16.83
2023-05-11T21:25:10.167Z,14.17
2023-05-11T21:27:37.344Z,14.23
2023-05-11T21:30:05.250Z,15.00
2023-05-11T21:32:34.978Z,14.38
2023-05-11T21:35:04.580Z,15.13
2023-05-11T21:37:34.096Z,15.30
2023-05-11T21:40:01.458Z,16.75
2023-05-11T21:42:34.554Z,15.03
2023-05-11T21:45:04.987Z,13.63
2023-05-11T21:47:34.873Z,15.10
2023-05-11T21:50:02.175Z,13.80
2023-05-11T21:52:29.565Z,16.40
2023-05-11T21:54:56.730Z,15.50
2023-05-11T21:57:28.578Z,14.43
2023-05-11T21:59:55.701Z,15.40
2023-05-11T22:02:23.557Z,16.83
2023-05-11T22:04:50.740Z,16.02
2023-05-11T22:07:18.205Z,16.00
2023-05-11T22:09:48.649Z,15.37
2023-05-11T22:12:18.131Z,17.10
2023-05-11T22:14:50.265Z,17.23
2023-05-11T22:17:17.391Z,16.13
2023-05-11T22:19:46.954Z,17.63
2023-05-11T22:22:16.659Z,19.53
2023-05-11T22:24:43.789Z,15.85
2023-05-11T22:27:15.654Z,16.90
2023-05-11T22:29:45.521Z,19.63
2023-05-11T22:32:12.807Z,20.20
2023-05-11T22:34:42.121Z,21.77
2023-05-11T22:37:09.336Z,19.33
2023-05-11T22:39:38.952Z,21.07
2023-05-11T22:42:06.562Z,19.03
2023-05-11T22:44:36.412Z,18.20
2023-05-11T22:47:06.381Z,18.63
2023-05-11T22:49:33.941Z,21.60
2023-05-11T22:52:01.134Z,20.13
2023-05-11T22:54:30.516Z,18.00
2023-05-11T22:56:57.780Z,18.63
2023-05-11T22:59:29.350Z,19.50
2023-05-11T23:02:01.528Z,16.70
2023-05-11T23:04:32.392Z,19.90
2023-05-11T23:06:59.898Z,19.73
2023-05-11T23:09:27.740Z,20.63
2023-05-11T23:11:57.679Z,18.97
2023-05-11T23:14:27.246Z,19.27
2023-05-11T23:16:54.386Z,25.77
2023-05-11T23:19:21.708Z,18.50
2023-05-11T23:21:49.003Z,19.30
2023-05-11T23:24:18.731Z,19.47
2023-05-11T23:26:48.118Z,20.67
2023-05-11T23:29:15.250Z,18.80
2023-05-11T23:31:42.711Z,20.30
2023-05-11T23:34:09.900Z,18.87
2023-05-11T23:36:39.581Z,18.43
2023-05-11T23:39:09.680Z,18.03
2023-05-11T23:41:38.926Z,21.13
2023-05-11T23:44:11.009Z,18.80
2023-05-11T23:46:40.683Z,18.67
2023-05-11T23:49:07.976Z,19.87
2023-05-11T23:51:35.091Z,19.90
2023-05-11T23:54:04.614Z,21.23
2023-05-11T23:56:33.968Z,20.40
2023-05-11T23:59:08.133Z,21.10
